Time;durP1;ratioP1;P1;durP2;ratioP2;P2;SDS_P1;SDS_P2;PMS_P1;PMS_P2;Temp;Humidity;BMP_temperature;BMP_pressure;BME280_temperature;BME280_humidity;BME280_pressure;Samples;Min_cycle;Max_cycle;Signal;HPM_P1;HPM_P2
2022/08/22 00:00:54;;;;;;;9.02;4.55;;;10.90;99.90;;;;;;5017260;28;20022;-70
2022/08/22 00:03:28;;;;;;;6.13;3.95;;;11.00;99.90;;;;;;5017358;28;20478;-69
2022/08/22 00:05:59;;;;;;;;;;;11.00;99.90;;;;;;5018055;28;20026;-70
2022/08/22 00:08:37;;;;;;;6.38;4.15;;;11.00;99.90;;;;;;5017246;28;20349;-70
2022/08/22 00:11:12;;;;;;;4.45;4.00;;;10.90;99.90;;;;;;5016958;28;20029;-69
2022/08/22 00:13:55;;;;;;;9.88;4.53;;;10.80;99.90;;;;;;5017326;28;20021;-70
2022/08/22 00:16:32;;;;;;;6.55;4.35;;;10.80;99.90;;;;;;5017608;28;20033;-70
2022/08/22 00:19:24;;;;;;;8.10;4.65;;;10.80;99.90;;;;;;5017035;28;20065;-70
2022/08/22 00:21:58;;;;;;;5.15;3.67;;;10.70;99.90;;;;;;5016481;28;20064;-69
2022/08/22 00:24:40;;;;;;;14.80;4.32;;;10.70;99.90;;;;;;5016854;28;20030;-70
2022/08/22 00:27:11;;;;;;;9.02;4.13;;;10.70;99.90;;;;;;5016824;28;20021;-69
2022/08/22 00:30:03;;;;;;;4.95;4.13;;;10.70;99.90;;;;;;5017034;28;20462;-70
2022/08/22 00:32:38;;;;;;;10.57;5.43;;;10.60;99.90;;;;;;5016999;28;20034;-70
2022/08/22 00:35:28;;;;;;;7.13;4.93;;;10.50;99.90;;;;;;5016599;28;20022;-69
2022/08/22 00:38:25;;;;;;;6.68;4.80;;;10.50;99.90;;;;;;5016867;28;20421;-70
2022/08/22 00:41:20;;;;;;;8.48;4.40;;;10.50;99.90;;;;;;5016598;28;20037;-69
2022/08/22 00:44:04;;;;;;;9.52;5.10;;;10.40;99.90;;;;;;5016529;28;20030;-70
2022/08/22 00:46:59;;;;;;;7.28;4.20;;;10.30;99.90;;;;;;5017004;28;20096;-69
2022/08/22 00:49:56;;;;;;;10.23;5.47;;;10.30;99.90;;;;;;5016405;28;20042;-70
2022/08/22 00:52:24;;;;;;;8.32;5.97;;;10.30;99.90;;;;;;5016362;28;20522;-70
2022/08/22 00:54:59;;;;;;;10.43;6.15;;;10.30;99.90;;;;;;5015752;28;20022;-70
2022/08/22 00:57:36;;;;;;;8.07;5.60;;;10.40;99.90;;;;;;5016433;28;20094;-70
2022/08/22 01:00:09;;;;;;;13.93;5.20;;;10.30;99.90;;;;;;5016170;28;20029;-70
2022/08/22 01:02:42;;;;;;;9.27;4.97;;;10.30;99.90;;;;;;5016460;28;20522;-70
2022/08/22 01:05:24;;;;;;;13.93;5.47;;;10.30;99.90;;;;;;5016343;28;20056;-70
2022/08/22 01:08:17;;;;;;;10.65;5.25;;;10.30;99.90;;;;;;5016103;28;20485;-70
2022/08/22 01:10:45;;;;;;;10.55;5.13;;;10.40;99.90;;;;;;5016218;28;20034;-70
2022/08/22 01:13:48;;;;;;;8.95;4.95;;;10.40;99.90;;;;;;5014690;28;20076;-70
2022/08/22 01:16:13;;;;;;;7.30;5.53;;;10.40;99.90;;;;;;4996299;28;20023;-70
2022/08/22 01:19:16;;;;;;;11.38;5.57;;;10.40;99.90;;;;;;4996144;28;20508;-69
2022/08/22 01:22:16;;;;;;;13.65;5.72;;;10.30;99.90;;;;;;5001798;28;20099;-71
2022/08/22 01:25:16;;;;;;;16.88;5.72;;;10.30;99.90;;;;;;5015724;28;20076;-70
2022/08/22 01:27:54;;;;;;;11.48;4.82;;;10.30;99.90;;;;;;5015469;28;20041;-70
2022/08/22 01:30:40;;;;;;;11.70;6.50;;;10.20;99.90;;;;;;5015765;28;20030;-70
2022/08/22 01:33:25;;;;;;;9.07;5.18;;;10.20;99.90;;;;;;5015854;28;20022;-70
2022/08/22 01:36:12;;;;;;;9.70;5.25;;;10.20;99.90;;;;;;5014247;28;20049;-70
2022/08/22 01:39:14;;;;;;;9.50;5.05;;;10.20;99.90;;;;;;5015482;28;20374;-70
2022/08/22 01:42:11;;;;;;;14.25;5.57;;;10.20;99.90;;;;;;5015319;28;20180;-69
2022/08/22 01:44:43;;;;;;;13.55;5.90;;;10.20;99.90;;;;;;5015528;28;20076;-69
2022/08/22 01:49:34;;;;;;;9.57;5.85;;;10.20;99.90;;;;;;5036359;23;20049;-67
2022/08/22 01:52:28;;;;;;;20.48;6.65;;;10.20;99.90;;;;;;5014901;28;20034;-68
2022/08/22 01:55:01;;;;;;;11.27;6.75;;;10.20;99.90;;;;;;5014090;28;20038;-67
2022/08/22 01:57:27;;;;;;;15.15;6.88;;;10.20;99.90;;;;;;5014973;28;20549;-67
2022/08/22 02:00:08;;;;;;;13.43;6.47;;;10.10;99.90;;;;;;5008654;28;20510;-68
2022/08/22 02:02:39;;;;;;;15.38;7.47;;;10.10;99.90;;;;;;4995331;28;20029;-68
2022/08/22 02:05:17;;;;;;;17.20;7.22;;;10.10;99.90;;;;;;4995216;28;20057;-68
2022/08/22 02:08:15;;;;;;;12.18;6.85;;;10.10;99.90;;;;;;4995400;28;20371;-68
2022/08/22 02:10:52;;;;;;;18.25;6.65;;;10.10;99.90;;;;;;4995435;28;20041;-68
2022/08/22 02:13:39;;;;;;;15.43;7.90;;;10.10;99.90;;;;;;4995468;28;20378;-68
2022/08/22 02:16:15;;;;;;;18.90;7.53;;;10.10;99.90;;;;;;4995122;28;20029;-68
2022/08/22 02:18:58;;;;;;;19.70;6.65;;;10.00;99.90;;;;;;4995011;28;20033;-68
2022/08/22 02:21:43;;;;;;;11.25;7.78;;;10.10;99.90;;;;;;4994723;28;20033;-68
2022/08/22 02:24:23;;;;;;;13.20;7.63;;;10.10;99.90;;;;;;4994409;28;20038;-68
2022/08/22 02:27:09;;;;;;;9.32;7.07;;;10.10;99.90;;;;;;4994867;28;20385;-68
2022/08/22 02:29:41;;;;;;;15.43;6.78;;;10.10;99.90;;;;;;4994732;28;20018;-68
2022/08/22 02:32:43;;;;;;;7.53;6.00;;;10.10;99.90;;;;;;4994583;28;20041;-67
2022/08/22 02:35:13;;;;;;;9.88;6.97;;;10.10;99.90;;;;;;4994685;28;20022;-68
2022/08/22 02:38:04;;;;;;;8.93;6.80;;;10.20;99.90;;;;;;4994825;28;20097;-67
2022/08/22 02:40:52;;;;;;;12.05;5.78;;;10.20;99.90;;;;;;4994615;28;20022;-67
2022/08/22 02:43:25;;;;;;;6.60;5.13;;;10.20;99.90;;;;;;4994913;28;20029;-68
2022/08/22 02:46:04;;;;;;;13.50;5.95;;;10.30;99.90;;;;;;4994581;28;20030;-67
2022/08/22 02:48:51;;;;;;;9.05;6.32;;;10.30;99.90;;;;;;4994446;28;20049;-68
2022/08/22 02:51:33;;;;;;;8.55;5.70;;;10.30;99.90;;;;;;4994394;28;20027;-68
2022/08/22 02:54:20;;;;;;;12.02;5.68;;;10.30;99.90;;;;;;4994416;28;20478;-67
2022/08/22 02:56:49;;;;;;;10.98;6.60;;;10.30;99.90;;;;;;4994266;28;20475;-67
2022/08/22 02:59:33;;;;;;;9.27;6.00;;;10.40;99.90;;;;;;4994241;28;20125;-67
2022/08/22 03:02:18;;;;;;;;;;;10.40;99.90;;;;;;4994690;28;20499;-68
2022/08/22 03:04:51;;;;;;;8.55;5.63;;;10.40;99.90;;;;;;4994250;28;19913;-68
2022/08/22 03:07:20;;;;;;;13.25;5.82;;;10.40;99.90;;;;;;4994058;28;20109;-68
2022/08/22 03:10:21;;;;;;;8.57;5.53;;;10.40;99.90;;;;;;4994206;28;20027;-68
2022/08/22 03:13:06;;;;;;;8.77;5.28;;;10.40;99.90;;;;;;4992877;28;20022;-68
2022/08/22 03:15:50;;;;;;;9.68;5.35;;;10.30;99.90;;;;;;4994369;28;20106;-68
2022/08/22 03:18:26;;;;;;;10.82;5.53;;;10.30;99.90;;;;;;4993497;28;20475;-68
2022/08/22 03:21:12;;;;;;;5.75;5.15;;;10.20;99.90;;;;;;4994403;28;20109;-67
2022/08/22 03:23:41;;;;;;;12.02;6.68;;;10.20;99.90;;;;;;4994279;28;20043;-68
2022/08/22 03:26:29;;;;;;;8.52;5.35;;;10.20;99.90;;;;;;4993974;28;20150;-68
2022/08/22 03:29:23;;;;;;;16.98;5.65;;;10.10;99.90;;;;;;4993805;28;20031;-67
2022/08/22 03:32:16;;;;;;;11.73;6.32;;;10.00;99.90;;;;;;4993634;28;20110;-68
2022/08/22 03:35:01;;;;;;;10.30;6.07;;;10.00;99.90;;;;;;4993903;28;20113;-68
2022/08/22 03:37:42;;;;;;;12.70;5.97;;;9.90;99.90;;;;;;4993920;28;20053;-67
2022/08/22 03:40:26;;;;;;;12.52;5.15;;;9.90;99.90;;;;;;4994504;28;20029;-67
2022/08/22 03:43:37;;;;;;;15.40;6.47;;;9.80;99.90;;;;;;4993885;28;20031;-68
2022/08/22 03:46:35;;;;;;;14.77;7.78;;;9.70;99.90;;;;;;4993667;28;20022;-68
2022/08/22 03:49:03;;;;;;;14.18;7.72;;;9.70;99.90;;;;;;4993765;28;20486;-67
2022/08/22 03:51:47;;;;;;;17.65;8.80;;;9.70;99.90;;;;;;4993602;28;20088;-67
2022/08/22 03:54:54;;;;;;;15.93;8.75;;;9.70;99.90;;;;;;4993979;28;20394;-67
2022/08/22 03:57:55;;;;;;;17.58;10.15;;;9.60;99.90;;;;;;4993232;28;20038;-67
2022/08/22 04:00:28;;;;;;;19.55;10.70;;;9.60;99.90;;;;;;4972266;28;20479;-67
2022/08/22 04:03:18;;;;;;;22.88;11.10;;;9.60;99.90;;;;;;4990214;28;20042;-67
2022/08/22 04:05:58;;;;;;;24.10;12.48;;;9.50;99.90;;;;;;4993993;28;20034;-68
2022/08/22 04:08:54;;;;;;;20.33;10.63;;;9.50;99.90;;;;;;4993666;28;20478;-68
2022/08/22 04:11:43;;;;;;;18.98;11.68;;;9.50;99.90;;;;;;4993499;28;20030;-68
2022/08/22 04:14:42;;;;;;;18.58;11.70;;;9.50;99.90;;;;;;4993630;28;20110;-67
2022/08/22 04:17:56;;;;;;;19.17;12.52;;;9.40;99.90;;;;;;4994377;28;20027;-68
2022/08/22 04:20:42;;;;;;;25.27;13.48;;;9.40;99.90;;;;;;4988581;28;20502;-67
2022/08/22 04:23:38;;;;;;;19.23;11.38;;;9.40;99.90;;;;;;4993432;28;20037;-68
2022/08/22 04:26:14;;;;;;;20.60;11.18;;;9.40;99.90;;;;;;4993586;28;20022;-68
2022/08/22 04:28:46;;;;;;;19.40;11.43;;;9.30;99.90;;;;;;4974268;28;20042;-67
2022/08/22 04:31:16;;;;;;;18.45;12.32;;;9.40;99.90;;;;;;4977235;28;20027;-67
2022/08/22 04:34:01;;;;;;;18.40;11.23;;;9.40;99.90;;;;;;4977856;28;20022;-67
2022/08/22 04:36:39;;;;;;;14.65;11.13;;;9.50;99.90;;;;;;4988789;28;20482;-67
2022/08/22 04:39:24;;;;;;;16.10;10.77;;;9.60;99.90;;;;;;4996790;28;20084;-67
2022/08/22 04:42:22;;;;;;;17.52;11.43;;;9.70;99.90;;;;;;4996847;28;20126;-68
2022/08/22 04:45:32;;;;;;;18.15;11.07;;;9.80;99.90;;;;;;4981752;28;20042;-68
2022/08/22 04:48:30;;;;;;;15.30;10.80;;;9.80;99.90;;;;;;4973718;28;20038;-68
2022/08/22 04:51:09;;;;;;;17.67;10.98;;;9.90;99.90;;;;;;4996201;28;20491;-68
2022/08/22 04:54:09;;;;;;;20.80;11.23;;;10.10;99.90;;;;;;4996520;28;20030;-68
2022/08/22 04:57:01;;;;;;;12.98;10.40;;;10.20;99.90;;;;;;4996761;28;20482;-68
2022/08/22 04:59:29;;;;;;;17.33;10.15;;;10.30;99.90;;;;;;4996553;28;20034;-68
2022/08/22 05:01:58;;;;;;;19.20;10.40;;;10.50;99.90;;;;;;4996715;28;20069;-67
2022/08/22 05:04:29;;;;;;;14.90;10.10;;;10.60;99.90;;;;;;4995102;28;20022;-67
2022/08/22 05:07:05;;;;;;;16.52;10.77;;;10.80;99.90;;;;;;4996332;28;20106;-67
2022/08/22 05:09:34;;;;;;;13.88;9.85;;;11.00;99.90;;;;;;4996317;28;20050;-68
2022/08/22 05:12:07;;;;;;;11.73;9.02;;;11.20;99.90;;;;;;4996083;28;20022;-67
2022/08/22 05:14:42;;;;;;;11.77;10.43;;;11.40;99.90;;;;;;4996439;28;20042;-68
2022/08/22 05:17:12;;;;;;;16.33;11.40;;;11.60;99.90;;;;;;4996172;28;20555;-68
2022/08/22 05:19:42;;;;;;;14.65;10.68;;;11.80;99.90;;;;;;4996445;28;20470;-67
2022/08/22 05:22:15;;;;;;;32.25;12.50;;;12.00;99.90;;;;;;4995942;28;20041;-68
2022/08/22 05:24:46;;;;;;;19.88;12.32;;;12.20;99.90;;;;;;4996372;28;20157;-68
2022/08/22 05:27:18;;;;;;;15.20;11.45;;;12.40;99.90;;;;;;4996084;28;20034;-67
2022/08/22 05:29:47;;;;;;;22.10;13.65;;;12.60;99.90;;;;;;4996244;28;20031;-67
2022/08/22 05:32:36;;;;;;;18.30;12.32;;;12.70;99.90;;;;;;4996101;28;20035;-67
2022/08/22 05:35:03;;;;;;;23.42;13.95;;;12.90;99.90;;;;;;4995891;28;20050;-68
2022/08/22 05:37:58;;;;;;;19.85;13.50;;;13.00;99.90;;;;;;4995899;28;20053;-67
2022/08/22 05:40:29;;;;;;;23.13;14.18;;;13.30;99.90;;;;;;4986664;28;20034;-67
2022/08/22 05:42:56;;;;;;;15.10;12.52;;;13.40;99.90;;;;;;4995713;28;20022;-67
2022/08/22 05:45:23;;;;;;;19.55;13.13;;;13.60;99.90;;;;;;4995557;28;20050;-68
2022/08/22 05:48:04;;;;;;;21.27;14.32;;;13.80;99.90;;;;;;4995609;28;20085;-68
2022/08/22 05:50:58;;;;;;;20.23;14.25;;;14.00;99.90;;;;;;4996184;28;20034;-68
2022/08/22 05:53:35;;;;;;;23.33;14.43;;;14.30;99.90;;;;;;4995502;28;20069;-67
2022/08/22 05:56:19;;;;;;;20.60;15.85;;;14.60;99.90;;;;;;4995605;28;20030;-68
2022/08/22 05:58:47;;;;;;;15.32;12.18;;;14.90;99.90;;;;;;4995404;28;20394;-67
2022/08/22 06:01:30;;;;;;;22.77;13.52;;;15.10;99.90;;;;;;4995262;28;20038;-67
2022/08/22 06:04:21;;;;;;;21.55;14.50;;;15.40;99.90;;;;;;4995600;28;20033;-67
2022/08/22 06:07:01;;;;;;;30.98;16.17;;;15.70;99.90;;;;;;4995513;28;20077;-67
2022/08/22 06:10:07;;;;;;;19.67;13.32;;;15.90;99.90;;;;;;4995174;28;20022;-68
2022/08/22 06:12:41;;;;;;;19.75;10.20;;;16.10;99.90;;;;;;4995179;28;20026;-68
2022/08/22 06:15:15;;;;;;;24.63;10.98;;;16.30;99.90;;;;;;4995140;28;20072;-68
2022/08/22 06:17:45;;;;;;;10.90;7.07;;;16.50;99.90;;;;;;4995455;28;20046;-68
2022/08/22 06:20:18;;;;;;;13.88;7.47;;;16.80;99.90;;;;;;4995057;28;20018;-68
2022/08/22 06:22:50;;;;;;;13.45;6.32;;;16.90;99.90;;;;;;4994903;28;20390;-68
2022/08/22 06:25:23;;;;;;;13.23;7.05;;;17.10;99.90;;;;;;4994830;28;20422;-68
2022/08/22 06:27:51;;;;;;;19.63;7.75;;;17.10;99.90;;;;;;4994793;28;20364;-68
2022/08/22 06:30:18;;;;;;;29.73;7.97;;;17.20;99.90;;;;;;4994751;28;20065;-68
2022/08/22 06:32:49;;;;;;;21.10;8.05;;;17.30;99.90;;;;;;4994686;28;20101;-68
2022/08/22 06:35:26;;;;;;;12.55;6.18;;;17.40;99.90;;;;;;4995025;28;20113;-68
2022/08/22 06:37:58;;;;;;;13.88;6.13;;;17.60;99.90;;;;;;4994740;28;20494;-68
2022/08/22 06:40:27;;;;;;;10.43;4.38;;;17.80;99.90;;;;;;4994467;28;20041;-68
2022/08/22 06:42:54;;;;;;;15.02;4.72;;;18.00;99.90;;;;;;4994580;28;20030;-69
2022/08/22 06:45:29;;;;;;;15.77;3.67;;;18.30;99.90;;;;;;4994549;28;20031;-67
2022/08/22 06:48:05;;;;;;;15.05;3.92;;;18.40;99.90;;;;;;4994454;28;20509;-67
2022/08/22 06:50:38;;;;;;;16.23;3.50;;;18.50;99.90;;;;;;4984590;28;20041;-67
2022/08/22 06:53:22;;;;;;;12.63;2.88;;;18.60;99.90;;;;;;4974183;28;20021;-67
2022/08/22 06:55:58;;;;;;;14.95;3.75;;;18.50;99.90;;;;;;4976793;28;20034;-67
2022/08/22 06:58:35;;;;;;;7.55;3.10;;;18.50;99.90;;;;;;4995072;28;20033;-67
2022/08/22 07:01:06;;;;;;;9.23;2.90;;;18.70;99.90;;;;;;4994404;28;20534;-68
2022/08/22 07:03:55;;;;;;;6.50;2.25;;;18.80;99.90;;;;;;4994305;28;20026;-68
2022/08/22 07:06:34;;;;;;;10.52;2.88;;;18.90;99.90;;;;;;4993950;28;20089;-68
2022/08/22 07:08:59;;;;;;;9.20;2.35;;;19.10;99.90;;;;;;4994158;28;20030;-69
2022/08/22 07:11:29;;;;;;;11.13;3.45;;;19.20;99.90;;;;;;4994071;28;20501;-68
2022/08/22 07:14:06;;;;;;;6.10;1.92;;;19.30;99.90;;;;;;4994333;28;20133;-68
2022/08/22 07:16:43;;;;;;;10.70;2.60;;;19.40;99.90;;;;;;4994439;28;20117;-68
2022/08/22 07:19:21;;;;;;;12.48;3.05;;;19.50;99.90;;;;;;4994186;28;20101;-68
2022/08/22 07:21:47;;;;;;;15.55;2.88;;;19.70;99.90;;;;;;4994382;28;20363;-67
2022/08/22 07:24:17;;;;;;;10.00;2.72;;;19.70;99.90;;;;;;4985639;28;20034;-67
2022/08/22 07:27:07;;;;;;;10.40;2.42;;;19.90;99.90;;;;;;4994444;28;20027;-68
2022/08/22 07:29:50;;;;;;;9.25;2.63;;;20.00;99.90;;;;;;4994199;28;20062;-69
2022/08/22 07:32:24;;;;;;;11.93;2.67;;;20.00;99.90;;;;;;4980527;28;20037;-69
2022/08/22 07:35:03;;;;;;;15.38;2.95;;;20.20;99.90;;;;;;4973293;28;20497;-68
2022/08/22 07:37:49;;;;;;;10.77;2.17;;;20.30;99.90;;;;;;4974415;28;20034;-68
2022/08/22 07:40:27;;;;;;;9.93;2.28;;;20.30;99.90;;;;;;4974746;28;20023;-68
2022/08/22 07:43:06;;;;;;;15.80;3.03;;;20.40;99.90;;;;;;4990572;28;20026;-67
2022/08/22 07:45:48;;;;;;;9.43;1.98;;;20.40;99.90;;;;;;4993892;28;20018;-67
2022/08/22 07:48:35;;;;;;;10.52;2.30;;;20.70;99.90;;;;;;5039881;22;20044;-70
2022/08/22 07:51:16;;;;;;;9.88;2.63;;;21.10;99.90;;;;;;5013481;28;20496;-70
2022/08/22 07:53:55;;;;;;;8.50;2.28;;;21.40;99.90;;;;;;5013484;28;20097;-70
2022/08/22 07:56:31;;;;;;;12.70;2.50;;;21.80;99.90;;;;;;5013598;28;20030;-70
2022/08/22 07:59:03;;;;;;;10.20;2.08;;;22.30;99.90;;;;;;5014060;28;20167;-71
2022/08/22 08:01:29;;;;;;;11.57;2.17;;;22.70;99.90;;;;;;5013757;28;20026;-71
2022/08/22 08:04:00;;;;;;;6.93;2.53;;;22.80;99.90;;;;;;5015070;28;20038;-70
2022/08/22 08:06:27;;;;;;;10.43;2.10;;;22.90;99.90;;;;;;5017337;28;20108;-70
2022/08/22 08:08:55;;;;;;;9.75;2.30;;;22.80;99.90;;;;;;5017087;28;20033;-72
2022/08/22 08:11:24;;;;;;;10.10;2.33;;;22.90;99.90;;;;;;5016919;28;20030;-71
2022/08/22 08:13:57;;;;;;;9.75;2.55;;;22.70;99.90;;;;;;5017062;28;20029;-71
2022/08/22 08:16:31;;;;;;;9.68;2.60;;;22.70;99.90;;;;;;5017229;28;20470;-71
2022/08/22 08:18:58;;;;;;;;;;;22.60;99.90;;;;;;5017454;28;20034;-71
2022/08/22 08:21:36;;;;;;;12.57;2.50;;;22.80;99.90;;;;;;5016928;28;19991;-71
2022/08/22 08:24:06;;;;;;;10.25;2.95;;;22.90;99.90;;;;;;5017250;28;20037;-72
2022/08/22 08:26:37;;;;;;;7.22;1.73;;;22.90;99.90;;;;;;5016796;28;20022;-71
2022/08/22 08:29:04;;;;;;;10.50;2.97;;;22.70;99.90;;;;;;5016981;28;20466;-71
2022/08/22 08:31:36;;;;;;;12.35;2.65;;;22.60;99.90;;;;;;5016891;28;20026;-71
2022/08/22 08:34:08;;;;;;;11.27;3.00;;;22.60;99.90;;;;;;5016795;28;20508;-71
2022/08/22 08:36:46;;;;;;;9.15;2.80;;;22.50;99.90;;;;;;5016568;28;20058;-70
2022/08/22 08:39:32;;;;;;;10.50;2.38;;;22.40;99.90;;;;;;5016804;28;20033;-71
2022/08/22 08:42:20;;;;;;;12.15;2.40;;;22.60;99.90;;;;;;5016472;28;20034;-71
2022/08/22 08:45:05;;;;;;;10.25;2.28;;;22.90;99.90;;;;;;5016415;28;20029;-71
2022/08/22 08:48:05;;;;;;;7.00;1.90;;;23.30;99.90;;;;;;5016672;28;20034;-71
2022/08/22 08:50:49;;;;;;;9.23;2.05;;;24.00;99.90;;;;;;5016358;28;20034;-71
2022/08/22 08:53:38;;;;;;;13.23;2.67;;;24.30;99.90;;;;;;5016539;28;20025;-71
2022/08/22 08:56:50;;;;;;;13.68;2.72;;;24.10;99.90;;;;;;5016496;28;20018;-71
2022/08/22 08:59:37;;;;;;;8.38;2.25;;;24.40;99.90;;;;;;5016082;28;20046;-71
2022/08/22 09:02:14;;;;;;;8.35;2.50;;;24.20;99.90;;;;;;5016610;28;20429;-71
2022/08/22 09:05:15;;;;;;;6.18;2.17;;;24.20;99.90;;;;;;5016170;28;20034;-71
2022/08/22 09:07:52;;;;;;;7.65;1.95;;;24.30;99.90;;;;;;5016043;28;20385;-71
2022/08/22 09:10:28;;;;;;;6.90;2.22;;;24.40;99.90;;;;;;5016557;28;20026;-71
2022/08/22 09:13:18;;;;;;;8.88;1.77;;;24.50;99.90;;;;;;5015994;28;20421;-71
2022/08/22 09:16:20;;;;;;;10.32;2.20;;;24.50;99.90;;;;;;5015204;28;20022;-71
2022/08/22 09:19:19;;;;;;;12.57;2.38;;;24.70;99.90;;;;;;5016007;28;20101;-71
2022/08/22 09:22:03;;;;;;;10.90;2.40;;;25.20;99.90;;;;;;5016067;28;20434;-71
2022/08/22 09:24:55;;;;;;;4.90;1.85;;;25.80;99.90;;;;;;5015774;28;20080;-71
2022/08/22 09:27:58;;;;;;;4.50;2.08;;;26.00;99.90;;;;;;5015766;28;20030;-69
2022/08/22 09:30:32;;;;;;;7.40;1.77;;;26.10;99.90;;;;;;5003032;28;20042;-69
2022/08/22 09:33:08;;;;;;;7.55;2.85;;;26.40;99.90;;;;;;5015587;28;20109;-68
2022/08/22 09:36:00;;;;;;;9.93;2.75;;;26.90;99.90;;;;;;5016067;28;20072;-69
2022/08/22 09:38:56;;;;;;;8.63;2.00;;;27.10;99.90;;;;;;5015452;28;20033;-69
2022/08/22 09:41:37;;;;;;;9.13;2.55;;;27.00;99.90;;;;;;5015515;28;20053;-69
2022/08/22 09:44:27;;;;;;;6.38;1.98;;;26.70;99.90;;;;;;5015340;28;20022;-69
2022/08/22 09:47:26;;;;;;;12.23;1.73;;;26.30;99.90;;;;;;5015550;28;20032;-69
2022/08/22 09:50:19;;;;;;;4.25;1.83;;;26.00;99.90;;;;;;5015035;28;20033;-69
2022/08/22 09:53:09;;;;;;;3.67;2.13;;;25.80;99.90;;;;;;5015228;28;20037;-69
2022/08/22 09:55:41;;;;;;;5.07;1.98;;;25.90;99.90;;;;;;5015015;28;20144;-68
2022/08/22 09:58:40;;;;;;;6.10;1.50;;;26.10;99.90;;;;;;5015073;28;20128;-68
2022/08/22 10:01:20;;;;;;;10.88;2.40;;;26.10;99.90;;;;;;5015255;28;20037;-70
2022/08/22 10:04:13;;;;;;;7.75;2.08;;;26.30;99.90;;;;;;5015183;28;20034;-70
2022/08/22 10:07:16;;;;;;;10.35;2.25;;;26.70;99.90;;;;;;5014885;28;20425;-68
2022/08/22 10:10:08;;;;;;;5.43;1.58;;;26.60;99.90;;;;;;5014780;28;20057;-69
2022/08/22 10:12:49;;;;;;;6.35;2.03;;;26.10;99.90;;;;;;5015062;28;20038;-69
2022/08/22 10:15:29;;;;;;;8.27;2.20;;;25.70;99.90;;;;;;5014769;28;20014;-68
2022/08/22 10:18:06;;;;;;;6.95;1.80;;;25.40;99.90;;;;;;5014953;28;20045;-70
2022/08/22 10:20:44;;;;;;;4.72;1.67;;;25.00;99.90;;;;;;5014652;28;20036;-70
2022/08/22 10:23:45;;;;;;;9.88;1.98;;;24.80;99.90;;;;;;5015131;28;20026;-68
2022/08/22 10:26:36;;;;;;;5.80;1.67;;;24.90;99.90;;;;;;5006302;28;20072;-70
2022/08/22 10:29:26;;;;;;;4.95;1.90;;;24.90;99.90;;;;;;5014140;28;20091;-70
2022/08/22 10:32:01;;;;;;;8.70;1.90;;;25.00;99.90;;;;;;5014435;28;20026;-68
2022/08/22 10:34:35;;;;;;;8.30;1.95;;;24.80;99.90;;;;;;5014743;28;20065;-68
2022/08/22 10:37:29;;;;;;;6.25;1.90;;;24.70;99.90;;;;;;5014682;28;20095;-70
2022/08/22 10:39:58;;;;;;;6.57;1.80;;;24.60;99.90;;;;;;5014273;28;20481;-68
2022/08/22 10:42:26;;;;;;;5.57;1.65;;;24.50;99.90;;;;;;5014293;28;20106;-70
2022/08/22 10:45:11;;;;;;;4.13;1.60;;;24.40;99.90;;;;;;5015029;28;20378;-69
2022/08/22 10:47:44;;;;;;;6.05;1.88;;;24.20;99.90;;;;;;5007501;28;20033;-70
2022/08/22 10:50:21;;;;;;;5.90;2.13;;;24.10;99.90;;;;;;4994925;28;20360;-68
2022/08/22 10:53:28;;;;;;;6.85;1.83;;;24.10;99.90;;;;;;5009829;28;20033;-70
2022/08/22 10:55:44;;;;;;;8.27;2.42;;;23.80;99.90;;;;;;5013991;28;20054;-70
2022/08/22 10:58:33;;;;;;;5.13;1.70;;;23.80;99.90;;;;;;5013910;28;20033;-68
2022/08/22 11:01:01;;;;;;;8.77;1.77;;;23.80;99.90;;;;;;5013573;28;20516;-70
2022/08/22 11:03:54;;;;;;;5.50;1.75;;;23.80;99.90;;;;;;5000774;28;20034;-69
2022/08/22 11:06:29;;;;;;;7.80;2.30;;;23.80;99.90;;;;;;5000091;28;20474;-70
2022/08/22 11:09:04;;;;;;;5.25;1.48;;;23.60;99.90;;;;;;5014652;28;20067;-69
2022/08/22 11:11:49;;;;;;;9.85;2.30;;;23.60;99.90;;;;;;5014019;28;20022;-70
2022/08/22 11:14:34;;;;;;;6.00;1.80;;;23.60;99.90;;;;;;5014079;28;20026;-70
2022/08/22 11:17:18;;;;;;;4.72;1.60;;;23.60;99.90;;;;;;5014036;28;20014;-70
2022/08/22 11:20:04;;;;;;;7.43;2.65;;;23.50;99.90;;;;;;4994565;28;20022;-70
2022/08/22 11:23:04;;;;;;;7.63;1.88;;;23.50;99.90;;;;;;5005105;28;20038;-70
2022/08/22 11:25:52;;;;;;;3.92;1.75;;;23.50;99.90;;;;;;5010567;28;20096;-68
2022/08/22 11:28:29;;;;;;;4.00;1.77;;;23.80;99.90;;;;;;5013830;28;20022;-70
2022/08/22 11:31:18;;;;;;;7.25;2.30;;;24.00;99.90;;;;;;5014051;28;20540;-70
2022/08/22 11:34:22;;;;;;;11.68;2.30;;;24.10;99.90;;;;;;5013874;28;20104;-70
2022/08/22 11:36:57;;;;;;;9.50;2.28;;;24.30;99.90;;;;;;5013928;28;20022;-69
2022/08/22 11:40:05;;;;;;;7.47;2.53;;;24.30;99.90;;;;;;5016180;28;20022;-69
2022/08/22 11:42:57;;;;;;;5.93;1.95;;;24.20;99.90;;;;;;4957237;29;20027;-69
2022/08/22 11:45:28;;;;;;;7.75;2.25;;;24.20;99.90;;;;;;4957143;29;20122;-69
2022/08/22 11:48:44;;;;;;;11.35;2.13;;;24.30;99.90;;;;;;4998580;28;20026;-68
2022/08/22 11:51:43;;;;;;;8.60;1.80;;;24.60;99.90;;;;;;5017619;28;20037;-67
2022/08/22 11:54:25;;;;;;;4.75;1.88;;;24.70;99.90;;;;;;5003645;28;20026;-67
2022/08/22 11:57:02;;;;;;;6.20;2.03;;;24.90;99.90;;;;;;4998055;28;20034;-69
2022/08/22 11:59:40;;;;;;;9.75;2.10;;;24.90;99.90;;;;;;4999683;28;20466;-67
2022/08/22 12:02:20;;;;;;;6.20;1.80;;;25.10;99.90;;;;;;4998470;28;20053;-67
2022/08/22 12:04:53;;;;;;;8.50;2.83;;;25.40;99.90;;;;;;5017080;28;20033;-69
2022/08/22 12:07:38;;;;;;;8.25;1.95;;;25.50;99.90;;;;;;5015871;28;20030;-69
2022/08/22 12:10:24;;;;;;;5.57;1.90;;;25.90;99.90;;;;;;5017317;28;20061;-67
2022/08/22 12:13:28;;;;;;;10.48;1.63;;;26.50;99.90;;;;;;5016726;28;20116;-67
2022/08/22 12:16:07;;;;;;;4.85;1.98;;;26.80;99.90;;;;;;4997850;28;20386;-66
2022/08/22 12:18:33;;;;;;;5.75;1.42;;;26.80;99.90;;;;;;4997344;28;20018;-67
2022/08/22 12:21:22;;;;;;;6.30;1.80;;;26.90;99.90;;;;;;5001419;28;20029;-67
2022/08/22 12:24:13;;;;;;;11.13;2.47;;;26.80;99.90;;;;;;5017165;28;20462;-69
2022/08/22 12:27:06;;;;;;;7.63;2.00;;;26.40;99.90;;;;;;5016834;28;20065;-68
2022/08/22 12:29:43;;;;;;;12.40;2.07;;;26.00;99.90;;;;;;5016669;28;20049;-68
2022/08/22 12:32:27;;;;;;;11.10;2.45;;;26.00;99.90;;;;;;5016806;28;20308;-69
2022/08/22 12:35:24;;;;;;;15.75;2.05;;;26.30;99.90;;;;;;5016940;28;20029;-69
2022/08/22 12:38:20;;;;;;;6.25;1.83;;;26.80;99.90;;;;;;5016493;28;20049;-70
2022/08/22 12:40:56;;;;;;;6.50;1.40;;;27.00;99.90;;;;;;5016037;28;20525;-69
2022/08/22 12:43:35;;;;;;;7.90;2.30;;;27.10;99.90;;;;;;5016482;28;20030;-69
2022/08/22 12:46:22;;;;;;;11.00;2.75;;;27.10;99.90;;;;;;5016386;28;20029;-69
2022/08/22 12:49:21;;;;;;;10.70;2.20;;;26.50;99.90;;;;;;5016139;28;20037;-69
2022/08/22 12:52:30;;;;;;;8.88;2.40;;;26.00;99.90;;;;;;5015289;28;20033;-69
2022/08/22 12:55:10;;;;;;;8.10;1.88;;;25.70;99.90;;;;;;5000264;28;20061;-69
2022/08/22 12:58:02;;;;;;;10.70;2.42;;;26.10;99.90;;;;;;5016400;28;20033;-69
2022/08/22 13:00:35;;;;;;;6.47;2.00;;;27.10;99.90;;;;;;5016282;28;20068;-69
2022/08/22 13:03:03;;;;;;;;;;;27.40;99.90;;;;;;5016573;28;20021;-69
2022/08/22 13:05:30;;;;;;;6.53;1.65;;;27.80;99.90;;;;;;5016338;28;20313;-69
2022/08/22 13:08:03;;;;;;;8.13;2.13;;;28.20;99.90;;;;;;5015954;28;20080;-69
2022/08/22 13:10:42;;;;;;;10.88;2.08;;;28.30;99.90;;;;;;5016683;28;20014;-70
2022/08/22 13:13:30;;;;;;;9.45;2.05;;;28.30;99.90;;;;;;5017294;28;20021;-69
2022/08/22 13:16:00;;;;;;;6.40;1.48;;;28.10;99.90;;;;;;5015529;28;20112;-69
2022/08/22 13:18:32;;;;;;;4.82;1.60;;;27.90;99.90;;;;;;5016172;28;20525;-71
2022/08/22 13:21:02;;;;;;;5.90;1.45;;;28.30;99.90;;;;;;5016510;28;20112;-71
2022/08/22 13:23:36;;;;;;;5.47;1.50;;;29.30;99.90;;;;;;5016337;28;20057;-71
2022/08/22 13:26:14;;;;;;;10.80;1.92;;;29.90;99.90;;;;;;5016535;28;20057;-71
2022/08/22 13:28:50;;;;;;;7.18;1.83;;;30.40;99.90;;;;;;5016193;28;20025;-71
2022/08/22 13:31:25;;;;;;;11.40;2.15;;;31.00;99.90;;;;;;5017089;28;20071;-71
2022/08/22 13:33:57;;;;;;;5.03;1.75;;;31.10;99.90;;;;;;5016389;28;20022;-71
2022/08/22 13:36:24;;;;;;;7.63;1.95;;;30.50;98.40;;;;;;5016437;28;20032;-71
2022/08/22 13:39:01;;;;;;;6.40;2.05;;;29.50;99.20;;;;;;5016012;28;20026;-71
2022/08/22 13:41:31;;;;;;;11.52;2.63;;;29.30;99.90;;;;;;5015955;28;20033;-71
2022/08/22 13:44:06;;;;;;;5.78;1.88;;;29.30;99.90;;;;;;5016542;28;20069;-71
2022/08/22 13:46:34;;;;;;;9.85;2.60;;;29.40;99.90;;;;;;5016420;28;20026;-71
2022/08/22 13:49:05;;;;;;;8.23;1.67;;;29.30;99.90;;;;;;5016234;28;20034;-72
2022/08/22 13:52:08;;;;;;;9.15;2.30;;;29.40;99.90;;;;;;5015379;28;20036;-72
2022/08/22 13:55:02;;;;;;;9.25;2.22;;;29.90;99.90;;;;;;5015618;28;20022;-72
2022/08/22 13:57:35;;;;;;;5.70;1.67;;;30.20;99.90;;;;;;5004391;28;20061;-72
2022/08/22 14:00:38;;;;;;;9.07;2.13;;;30.80;99.90;;;;;;5015633;28;20021;-72